sensor_id;sensor_type;location;lat;lon;timestamp;pressure;altitude;pressure_sealevel;temperature;humidity
34742;BME280;20968;42.696;23.360;2023-05-10T00:01:58;95521.06;;;11.55;83.78
34742;BME280;20968;42.696;23.360;2023-05-10T00:04:24;95528.09;;;11.56;82.75
34742;BME280;20968;42.696;23.360;2023-05-10T00:06:54;95511.97;;;11.40;84.22
34742;BME280;20968;42.696;23.360;2023-05-10T00:09:19;95505.06;;;11.30;83.78
34742;BME280;20968;42.696;23.360;2023-05-10T00:11:45;95510.50;;;11.39;83.47
34742;BME280;20968;42.696;23.360;2023-05-10T00:14:34;95504.75;;;11.28;82.75
34742;BME280;20968;42.696;23.360;2023-05-10T00:17:01;95509.63;;;11.18;83.11
34742;BME280;20968;42.696;23.360;2023-05-10T00:19:29;95505.81;;;11.30;82.75
34742;BME280;20968;42.696;23.360;2023-05-10T00:21:58;95504.47;;;11.26;82.69
34742;BME280;20968;42.696;23.360;2023-05-10T00:24:24;95497.63;;;11.36;82.71
34742;BME280;20968;42.696;23.360;2023-05-10T00:26:50;95498.97;;;11.26;83.14
34742;BME280;20968;42.696;23.360;2023-05-10T00:29:20;95495.34;;;11.20;83.13
34742;BME280;20968;42.696;23.360;2023-05-10T00:31:45;95498.22;;;11.25;82.59
34742;BME280;20968;42.696;23.360;2023-05-10T00:34:14;95497.63;;;11.21;82.85
34742;BME280;20968;42.696;23.360;2023-05-10T00:36:40;95500.84;;;11.20;83.23
34742;BME280;20968;42.696;23.360;2023-05-10T00:39:08;95490.97;;;10.99;83.60
34742;BME280;20968;42.696;23.360;2023-05-10T00:41:37;95491.53;;;11.03;83.24
34742;BME280;20968;42.696;23.360;2023-05-10T00:44:03;95481.66;;;11.11;83.50
34742;BME280;20968;42.696;23.360;2023-05-10T00:46:33;95503.06;;;11.16;83.38
34742;BME280;20968;42.696;23.360;2023-05-10T00:49:01;95483.66;;;11.10;83.03
34742;BME280;20968;42.696;23.360;2023-05-10T00:51:27;95491.16;;;11.10;82.22
34742;BME280;20968;42.696;23.360;2023-05-10T00:53:55;95478.91;;;11.11;82.72
34742;BME280;20968;42.696;23.360;2023-05-10T00:56:21;95483.47;;;11.14;83.03
34742;BME280;20968;42.696;23.360;2023-05-10T00:58:49;95479.47;;;11.15;82.59
34742;BME280;20968;42.696;23.360;2023-05-10T01:01:20;95486.59;;;11.21;82.34
34742;BME280;20968;42.696;23.360;2023-05-10T01:03:56;95492.28;;;11.18;82.22
34742;BME280;20968;42.696;23.360;2023-05-10T01:06:37;95472.72;;;11.01;82.87
34742;BME280;20968;42.696;23.360;2023-05-10T01:09:08;95487.66;;;11.09;82.13
34742;BME280;20968;42.696;23.360;2023-05-10T01:11:40;95474.63;;;11.10;82.42
34742;BME280;20968;42.696;23.360;2023-05-10T01:14:07;95474.31;;;10.93;81.92
34742;BME280;20968;42.696;23.360;2023-05-10T01:16:44;95476.88;;;10.97;82.42
34742;BME280;20968;42.696;23.360;2023-05-10T01:19:19;95475.38;;;10.96;82.04
34742;BME280;20968;42.696;23.360;2023-05-10T01:38:51;95476.06;;;10.68;82.24
34742;BME280;20968;42.696;23.360;2023-05-10T01:41:41;95463.81;;;10.69;82.35
34742;BME280;20968;42.696;23.360;2023-05-10T01:44:31;95464.06;;;10.56;82.04
34742;BME280;20968;42.696;23.360;2023-05-10T01:47:17;95458.28;;;10.54;82.07
34742;BME280;20968;42.696;23.360;2023-05-10T01:50:15;95457.75;;;10.41;82.35
34742;BME280;20968;42.696;23.360;2023-05-10T01:52:42;95463.19;;;10.50;82.38
34742;BME280;20968;42.696;23.360;2023-05-10T01:55:30;95456.00;;;10.53;81.90
34742;BME280;20968;42.696;23.360;2023-05-10T01:58:05;95460.16;;;10.48;81.46
34742;BME280;20968;42.696;23.360;2023-05-10T02:00:33;95463.38;;;10.47;81.35
34742;BME280;20968;42.696;23.360;2023-05-10T02:03:07;95469.25;;;10.40;81.26
34742;BME280;20968;42.696;23.360;2023-05-10T02:05:43;95453.38;;;10.35;81.47
34742;BME280;20968;42.696;23.360;2023-05-10T02:08:46;95457.88;;;10.47;80.83
34742;BME280;20968;42.696;23.360;2023-05-10T02:11:15;95452.84;;;10.45;80.09
34742;BME280;20968;42.696;23.360;2023-05-10T02:13:52;95456.00;;;10.53;79.96
34742;BME280;20968;42.696;23.360;2023-05-10T02:16:26;95465.59;;;10.57;80.48
34742;BME280;20968;42.696;23.360;2023-05-10T02:18:53;95455.25;;;10.52;79.55
34742;BME280;20968;42.696;23.360;2023-05-10T02:21:20;95469.44;;;10.36;79.68
34742;BME280;20968;42.696;23.360;2023-05-10T02:23:50;95467.41;;;10.37;79.52
34742;BME280;20968;42.696;23.360;2023-05-10T02:26:22;95473.91;;;10.48;80.01
34742;BME280;20968;42.696;23.360;2023-05-10T02:28:49;95474.50;;;10.52;78.48
34742;BME280;20968;42.696;23.360;2023-05-10T02:31:19;95476.75;;;10.39;78.14
34742;BME280;20968;42.696;23.360;2023-05-10T02:33:51;95472.66;;;10.35;78.21
34742;BME280;20968;42.696;23.360;2023-05-10T02:36:18;95477.56;;;10.07;77.09
34742;BME280;20968;42.696;23.360;2023-05-10T02:38:54;95470.19;;;10.13;77.40
34742;BME280;20968;42.696;23.360;2023-05-10T02:41:24;95464.59;;;9.99;76.51
34742;BME280;20968;42.696;23.360;2023-05-10T02:43:59;95468.75;;;9.95;75.53
34742;BME280;20968;42.696;23.360;2023-05-10T02:46:30;95475.16;;;9.92;75.86
34742;BME280;20968;42.696;23.360;2023-05-10T02:48:56;95477.28;;;9.97;74.58
34742;BME280;20968;42.696;23.360;2023-05-10T02:51:28;95466.91;;;10.01;75.27
34742;BME280;20968;42.696;23.360;2023-05-10T02:54:03;95463.59;;;10.20;75.73
34742;BME280;20968;42.696;23.360;2023-05-10T02:56:36;95459.06;;;10.31;75.53
34742;BME280;20968;42.696;23.360;2023-05-10T02:59:08;95464.09;;;10.09;73.00
34742;BME280;20968;42.696;23.360;2023-05-10T03:01:48;95473.63;;;10.00;73.92
34742;BME280;20968;42.696;23.360;2023-05-10T03:04:28;95463.84;;;10.22;74.45
34742;BME280;20968;42.696;23.360;2023-05-10T03:06:54;95471.94;;;10.25;74.13
34742;BME280;20968;42.696;23.360;2023-05-10T03:09:20;95478.59;;;10.33;73.32
34742;BME280;20968;42.696;23.360;2023-05-10T03:14:51;95477.84;;;10.33;72.98
34742;BME280;20968;42.696;23.360;2023-05-10T03:17:47;95485.00;;;10.16;72.73
34742;BME280;20968;42.696;23.360;2023-05-10T03:20:41;95476.38;;;10.00;72.80
34742;BME280;20968;42.696;23.360;2023-05-10T03:23:16;95468.88;;;9.91;73.20
34742;BME280;20968;42.696;23.360;2023-05-10T03:25:51;95471.25;;;9.84;72.91
34742;BME280;20968;42.696;23.360;2023-05-10T03:28:18;95487.00;;;9.83;73.57
34742;BME280;20968;42.696;23.360;2023-05-10T03:30:52;95476.63;;;9.69;73.53
34742;BME280;20968;42.696;23.360;2023-05-10T03:33:22;95477.41;;;9.70;74.40
34742;BME280;20968;42.696;23.360;2023-05-10T03:35:56;95487.19;;;9.71;75.04
34742;BME280;20968;42.696;23.360;2023-05-10T03:38:26;95493.06;;;9.55;75.02
34742;BME280;20968;42.696;23.360;2023-05-10T03:40:51;95488.00;;;9.53;75.13
34742;BME280;20968;42.696;23.360;2023-05-10T03:43:22;95487.59;;;9.46;75.08
34742;BME280;20968;42.696;23.360;2023-05-10T03:45:50;95477.66;;;9.48;75.91
34742;BME280;20968;42.696;23.360;2023-05-10T03:48:19;95468.28;;;9.64;76.02
34742;BME280;20968;42.696;23.360;2023-05-10T03:50:46;95483.59;;;9.56;75.83
34742;BME280;20968;42.696;23.360;2023-05-10T03:53:38;95481.53;;;9.74;75.50
34742;BME280;20968;42.696;23.360;2023-05-10T03:56:28;95485.66;;;9.70;74.75
34742;BME280;20968;42.696;23.360;2023-05-10T03:58:54;95487.41;;;9.58;75.72
34742;BME280;20968;42.696;23.360;2023-05-10T04:01:30;95496.13;;;9.48;75.42
34742;BME280;20968;42.696;23.360;2023-05-10T04:04:13;95487.25;;;9.53;76.68
34742;BME280;20968;42.696;23.360;2023-05-10T04:06:45;95497.03;;;9.54;75.47
34742;BME280;20968;42.696;23.360;2023-05-10T04:09:13;95501.97;;;9.41;77.00
34742;BME280;20968;42.696;23.360;2023-05-10T04:11:54;95505.91;;;9.49;76.97
34742;BME280;20968;42.696;23.360;2023-05-10T04:14:23;95496.75;;;9.43;76.01
34742;BME280;20968;42.696;23.360;2023-05-10T04:16:49;95497.22;;;9.41;74.81
34742;BME280;20968;42.696;23.360;2023-05-10T04:19:16;95501.97;;;9.41;76.49
34742;BME280;20968;42.696;23.360;2023-05-10T04:21:41;95506.50;;;9.44;75.84
34742;BME280;20968;42.696;23.360;2023-05-10T04:24:07;95499.09;;;9.68;76.14
34742;BME280;20968;42.696;23.360;2023-05-10T04:26:36;95505.59;;;9.47;75.05
34742;BME280;20968;42.696;23.360;2023-05-10T04:29:03;95502.69;;;9.50;75.59
34742;BME280;20968;42.696;23.360;2023-05-10T04:31:32;95514.75;;;9.53;75.13
34742;BME280;20968;42.696;23.360;2023-05-10T04:33:57;95500.84;;;9.47;75.91
34742;BME280;20968;42.696;23.360;2023-05-10T04:36:24;95509.09;;;9.47;74.68
34742;BME280;20968;42.696;23.360;2023-05-10T04:38:56;95503.19;;;9.31;75.39
34742;BME280;20968;42.696;23.360;2023-05-10T04:41:21;95501.66;;;9.30;75.21
34742;BME280;20968;42.696;23.360;2023-05-10T04:43:47;95506.13;;;9.19;75.96
34742;BME280;20968;42.696;23.360;2023-05-10T04:46:14;95495.13;;;9.19;76.02
34742;BME280;20968;42.696;23.360;2023-05-10T04:48:42;95502.25;;;9.43;76.28
34742;BME280;20968;42.696;23.360;2023-05-10T04:51:12;95508.34;;;9.47;75.79
34742;BME280;20968;42.696;23.360;2023-05-10T04:53:41;95497.03;;;9.54;75.04
34742;BME280;20968;42.696;23.360;2023-05-10T04:56:06;95496.47;;;9.41;74.63
34742;BME280;20968;42.696;23.360;2023-05-10T04:58:34;95508.66;;;9.49;74.65
34742;BME280;20968;42.696;23.360;2023-05-10T05:01:05;95506.34;;;9.47;74.82
34742;BME280;20968;42.696;23.360;2023-05-10T05:03:32;95493.72;;;9.41;75.98
34742;BME280;20968;42.696;23.360;2023-05-10T05:05:58;95497.34;;;9.56;75.48
34742;BME280;20968;42.696;23.360;2023-05-10T05:08:25;95504.91;;;9.70;75.19
34742;BME280;20968;42.696;23.360;2023-05-10T05:10:50;95510.09;;;9.68;74.76
34742;BME280;20968;42.696;23.360;2023-05-10T05:13:16;95500.63;;;9.69;74.85
34742;BME280;20968;42.696;23.360;2023-05-10T05:15:54;95519.72;;;9.72;75.02
34742;BME280;20968;42.696;23.360;2023-05-10T05:18:28;95506.13;;;9.69;75.14
34742;BME280;20968;42.696;23.360;2023-05-10T05:20:56;95513.59;;;9.68;75.04
34742;BME280;20968;42.696;23.360;2023-05-10T05:23:23;95507.31;;;9.77;75.09
34742;BME280;20968;42.696;23.360;2023-05-10T05:25:51;95510.28;;;9.55;74.79
34742;BME280;20968;42.696;23.360;2023-05-10T05:28:21;95520.22;;;9.53;75.01
34742;BME280;20968;42.696;23.360;2023-05-10T05:30:48;95524.91;;;9.70;76.10
34742;BME280;20968;42.696;23.360;2023-05-10T05:33:14;95523.56;;;9.57;75.21
34742;BME280;20968;42.696;23.360;2023-05-10T05:35:40;95520.06;;;9.56;76.07
34742;BME280;20968;42.696;23.360;2023-05-10T05:38:06;95519.25;;;9.74;76.20
34742;BME280;20968;42.696;23.360;2023-05-10T05:40:32;95525.63;;;9.80;75.22
34742;BME280;20968;42.696;23.360;2023-05-10T05:42:57;95522.28;;;9.85;75.64
34742;BME280;20968;42.696;23.360;2023-05-10T05:45:24;95524.25;;;9.84;74.69
34742;BME280;20968;42.696;23.360;2023-05-10T05:47:50;95534.31;;;9.87;75.72
34742;BME280;20968;42.696;23.360;2023-05-10T05:50:16;95527.28;;;9.86;75.88
34742;BME280;20968;42.696;23.360;2023-05-10T05:52:43;95535.00;;;9.73;75.32
34742;BME280;20968;42.696;23.360;2023-05-10T05:55:09;95530.25;;;9.74;74.76
34742;BME280;20968;42.696;23.360;2023-05-10T05:57:35;95538.28;;;9.86;75.25
34742;BME280;20968;42.696;23.360;2023-05-10T06:00:01;95527.50;;;9.74;75.69
34742;BME280;20968;42.696;23.360;2023-05-10T06:02:28;95537.47;;;9.62;75.64
34742;BME280;20968;42.696;23.360;2023-05-10T06:04:59;95535.34;;;9.57;75.37
34742;BME280;20968;42.696;23.360;2023-05-10T06:07:26;95533.81;;;9.56;75.41
34742;BME280;20968;42.696;23.360;2023-05-10T06:09:57;95542.53;;;9.55;75.83
34742;BME280;20968;42.696;23.360;2023-05-10T06:12:27;95544.31;;;9.67;74.82
34742;BME280;20968;42.696;23.360;2023-05-10T06:14:53;95545.28;;;9.55;75.88
34742;BME280;20968;42.696;23.360;2023-05-10T06:17:18;95533.66;;;9.51;75.90
34742;BME280;20968;42.696;23.360;2023-05-10T06:19:44;95540.03;;;9.66;75.25
34742;BME280;20968;42.696;23.360;2023-05-10T06:22:25;95556.50;;;9.75;75.27
34742;BME280;20968;42.696;23.360;2023-05-10T06:24:54;95545.22;;;9.73;75.45
34742;BME280;20968;42.696;23.360;2023-05-10T06:27:21;95551.63;;;9.79;75.33
34742;BME280;20968;42.696;23.360;2023-05-10T06:29:51;95548.91;;;9.70;75.46
34742;BME280;20968;42.696;23.360;2023-05-10T06:32:16;95559.56;;;9.77;74.80
34742;BME280;20968;42.696;23.360;2023-05-10T06:34:47;95547.94;;;9.82;74.43
34742;BME280;20968;42.696;23.360;2023-05-10T06:37:17;95553.25;;;9.85;75.36
34742;BME280;20968;42.696;23.360;2023-05-10T06:39:43;95545.19;;;9.82;74.73
34742;BME280;20968;42.696;23.360;2023-05-10T06:42:09;95551.63;;;9.79;74.28
34742;BME280;20968;42.696;23.360;2023-05-10T06:44:35;95543.72;;;9.72;74.85
34742;BME280;20968;42.696;23.360;2023-05-10T06:47:04;95550.81;;;9.87;75.29
34742;BME280;20968;42.696;23.360;2023-05-10T06:49:29;95545.69;;;10.12;75.08
34742;BME280;20968;42.696;23.360;2023-05-10T06:51:55;95557.00;;;10.14;73.26
34742;BME280;20968;42.696;23.360;2023-05-10T06:54:23;95550.09;;;10.19;74.27
34742;BME280;20968;42.696;23.360;2023-05-10T06:56:49;95563.69;;;10.22;72.62
34742;BME280;20968;42.696;23.360;2023-05-10T06:59:15;95556.00;;;10.26;73.96
34742;BME280;20968;42.696;23.360;2023-05-10T07:01:48;95558.91;;;10.32;71.62
34742;BME280;20968;42.696;23.360;2023-05-10T07:04:15;95556.84;;;10.18;72.34
34742;BME280;20968;42.696;23.360;2023-05-10T07:06:46;95559.06;;;10.28;72.12
34742;BME280;20968;42.696;23.360;2023-05-10T07:09:12;95558.72;;;10.35;71.87
34742;BME280;20968;42.696;23.360;2023-05-10T07:12:14;95573.63;;;10.52;72.17
34742;BME280;20968;42.696;23.360;2023-05-10T07:14:42;95559.91;;;10.43;70.21
34742;BME280;20968;42.696;23.360;2023-05-10T07:17:09;95568.00;;;10.47;69.74
34742;BME280;20968;42.696;23.360;2023-05-10T07:19:43;95577.06;;;10.62;70.20
34742;BME280;20968;42.696;23.360;2023-05-10T07:22:30;95558.09;;;10.64;70.14
34742;BME280;20968;42.696;23.360;2023-05-10T07:25:02;95565.75;;;10.60;69.68
34742;BME280;20968;42.696;23.360;2023-05-10T07:27:30;95576.94;;;10.56;68.88
34742;BME280;20968;42.696;23.360;2023-05-10T07:29:56;95567.19;;;10.55;69.89
34742;BME280;20968;42.696;23.360;2023-05-10T07:32:29;95575.97;;;10.68;69.61
34742;BME280;20968;42.696;23.360;2023-05-10T07:34:58;95574.84;;;10.51;68.16
34742;BME280;20968;42.696;23.360;2023-05-10T07:37:31;95570.09;;;10.52;69.07
34742;BME280;20968;42.696;23.360;2023-05-10T07:40:12;95576.69;;;10.54;69.30
34742;BME280;20968;42.696;23.360;2023-05-10T07:42:50;95576.69;;;10.54;68.95
34742;BME280;20968;42.696;23.360;2023-05-10T07:45:19;95580.72;;;10.68;69.35
34742;BME280;20968;42.696;23.360;2023-05-10T07:47:50;95572.63;;;10.64;67.95
34742;BME280;20968;42.696;23.360;2023-05-10T07:50:54;95568.41;;;10.54;68.56
34742;BME280;20968;42.696;23.360;2023-05-10T07:53:53;95572.28;;;10.71;69.01
34742;BME280;20968;42.696;23.360;2023-05-10T07:56:27;95576.72;;;10.92;69.97
34742;BME280;20968;42.696;23.360;2023-05-10T07:59:15;95582.88;;;11.10;68.65
34742;BME280;20968;42.696;23.360;2023-05-10T08:01:42;95585.63;;;11.10;67.05
34742;BME280;20968;42.696;23.360;2023-05-10T08:04:13;95576.94;;;11.03;66.43
34742;BME280;20968;42.696;23.360;2023-05-10T08:06:42;95592.69;;;11.26;67.48
34742;BME280;20968;42.696;23.360;2023-05-10T08:09:11;95590.88;;;11.23;67.61
34742;BME280;20968;42.696;23.360;2023-05-10T08:11:56;95577.66;;;11.12;66.57
34742;BME280;20968;42.696;23.360;2023-05-10T08:14:25;95594.56;;;11.20;66.34
34742;BME280;20968;42.696;23.360;2023-05-10T08:16:51;95578.03;;;11.20;67.51
34742;BME280;20968;42.696;23.360;2023-05-10T08:19:27;95594.56;;;11.20;67.17
34742;BME280;20968;42.696;23.360;2023-05-10T08:22:08;95583.63;;;11.11;67.53
34742;BME280;20968;42.696;23.360;2023-05-10T08:24:59;95587.94;;;11.26;68.29
34742;BME280;20968;42.696;23.360;2023-05-10T08:27:29;95583.56;;;11.20;67.58
34742;BME280;20968;42.696;23.360;2023-05-10T08:29:59;95605.22;;;11.27;68.42
34742;BME280;20968;42.696;23.360;2023-05-10T08:32:44;95585.81;;;11.21;67.95
34742;BME280;20968;42.696;23.360;2023-05-10T08:35:17;95583.84;;;11.36;67.96
34742;BME280;20968;42.696;23.360;2023-05-10T08:37:47;95585.94;;;11.27;66.75
34742;BME280;20968;42.696;23.360;2023-05-10T08:40:19;95597.03;;;11.18;66.95
34742;BME280;20968;42.696;23.360;2023-05-10T08:43:09;95587.59;;;11.10;68.25
34742;BME280;20968;42.696;23.360;2023-05-10T08:45:41;95600.03;;;11.29;67.88
34742;BME280;20968;42.696;23.360;2023-05-10T08:48:08;95595.66;;;11.37;68.19
34742;BME280;20968;42.696;23.360;2023-05-10T08:50:41;95588.38;;;11.63;68.69
34742;BME280;20968;42.696;23.360;2023-05-10T08:53:13;95596.38;;;11.75;68.59
34742;BME280;20968;42.696;23.360;2023-05-10T08:55:44;95601.72;;;11.93;67.06
34742;BME280;20968;42.696;23.360;2023-05-10T08:58:12;95597.16;;;12.04;67.75
34742;BME280;20968;42.696;23.360;2023-05-10T09:00:45;95601.25;;;11.94;67.03
34742;BME280;20968;42.696;23.360;2023-05-10T09:03:12;95590.09;;;12.03;68.90
34742;BME280;20968;42.696;23.360;2023-05-10T09:08:19;95579.25;;;12.14;68.27
34742;BME280;20968;42.696;23.360;2023-05-10T09:10:46;95594.19;;;12.22;66.87
34742;BME280;20968;42.696;23.360;2023-05-10T09:13:21;95599.34;;;12.00;66.61
34742;BME280;20968;42.696;23.360;2023-05-10T09:15:51;95595.44;;;12.07;68.18
34742;BME280;20968;42.696;23.360;2023-05-10T09:18:18;95593.25;;;11.96;67.58
34742;BME280;20968;42.696;23.360;2023-05-10T09:20:43;95590.28;;;11.85;68.08
34742;BME280;20968;42.696;23.360;2023-05-10T09:23:13;95583.28;;;11.70;68.94
34742;BME280;20968;42.696;23.360;2023-05-10T09:25:41;95579.19;;;11.65;69.68
34742;BME280;20968;42.696;23.360;2023-05-10T09:28:14;95580.53;;;11.47;69.11
34742;BME280;20968;42.696;23.360;2023-05-10T09:30:42;95586.69;;;11.65;69.86
34742;BME280;20968;42.696;23.360;2023-05-10T09:33:17;95584.47;;;11.55;67.98
34742;BME280;20968;42.696;23.360;2023-05-10T09:35:43;95582.69;;;11.66;67.88
34742;BME280;20968;42.696;23.360;2023-05-10T09:38:08;95580.41;;;11.64;68.00
34742;BME280;20968;42.696;23.360;2023-05-10T09:40:37;95582.41;;;11.78;66.72
34742;BME280;20968;42.696;23.360;2023-05-10T09:43:06;95583.81;;;11.74;65.96
34742;BME280;20968;42.696;23.360;2023-05-10T09:45:41;95577.66;;;11.64;65.99
34742;BME280;20968;42.696;23.360;2023-05-10T09:48:09;95584.88;;;11.91;66.62
34742;BME280;20968;42.696;23.360;2023-05-10T09:50:36;95579.47;;;11.67;65.46
34742;BME280;20968;42.696;23.360;2023-05-10T09:53:05;95578.97;;;11.69;65.20
34742;BME280;20968;42.696;23.360;2023-05-10T09:55:43;95572.34;;;11.75;66.69
34742;BME280;20968;42.696;23.360;2023-05-10T09:58:10;95567.94;;;11.69;65.85
34742;BME280;20968;42.696;23.360;2023-05-10T10:00:37;95565.56;;;12.05;66.72
34742;BME280;20968;42.696;23.360;2023-05-10T10:03:04;95571.03;;;12.20;65.82
34742;BME280;20968;42.696;23.360;2023-05-10T10:05:31;95560.19;;;12.16;65.00
34742;BME280;20968;42.696;23.360;2023-05-10T10:07:58;95566.50;;;12.17;64.33
34742;BME280;20968;42.696;23.360;2023-05-10T10:10:27;95562.31;;;12.21;63.83
34742;BME280;20968;42.696;23.360;2023-05-10T10:12:54;95568.78;;;12.18;63.88
34742;BME280;20968;42.696;23.360;2023-05-10T10:15:39;95549.34;;;12.13;64.50
34742;BME280;20968;42.696;23.360;2023-05-10T10:18:05;95542.63;;;11.99;64.39
34742;BME280;20968;42.696;23.360;2023-05-10T10:20:32;95541.00;;;12.07;64.04
34742;BME280;20968;42.696;23.360;2023-05-10T10:22:58;95546.78;;;12.24;63.60
34742;BME280;20968;42.696;23.360;2023-05-10T10:25:24;95553.81;;;12.25;63.52
34742;BME280;20968;42.696;23.360;2023-05-10T10:28:06;95554.34;;;12.43;62.83
34742;BME280;20968;42.696;23.360;2023-05-10T10:34:09;95548.50;;;12.75;62.54
34742;BME280;20968;42.696;23.360;2023-05-10T10:37:04;95555.34;;;12.80;62.19
34742;BME280;20968;42.696;23.360;2023-05-10T10:39:33;95552.00;;;12.76;63.09
34742;BME280;20968;42.696;23.360;2023-05-10T10:42:02;95555.06;;;12.78;62.34
34742;BME280;20968;42.696;23.360;2023-05-10T10:49:26;95555.69;;;12.67;62.56
34742;BME280;20968;42.696;23.360;2023-05-10T10:52:24;95546.56;;;12.61;63.15
34742;BME280;20968;42.696;23.360;2023-05-10T10:55:11;95545.41;;;12.68;62.90
34742;BME280;20968;42.696;23.360;2023-05-10T11:02:59;95560.38;;;12.81;63.31
34742;BME280;20968;42.696;23.360;2023-05-10T11:05:47;95548.41;;;12.70;63.49
34742;BME280;20968;42.696;23.360;2023-05-10T11:08:26;95553.19;;;12.69;63.49
34742;BME280;20968;42.696;23.360;2023-05-10T11:16:16;95550.84;;;12.82;63.70
34742;BME280;20968;42.696;23.360;2023-05-10T11:19:03;95551.06;;;12.79;62.95
34742;BME280;20968;42.696;23.360;2023-05-10T11:21:33;95552.16;;;12.87;63.74
34742;BME280;20968;42.696;23.360;2023-05-10T11:24:02;95533.66;;;12.93;63.43
34742;BME280;20968;42.696;23.360;2023-05-10T11:26:45;95552.47;;;13.09;63.56
34742;BME280;20968;42.696;23.360;2023-05-10T11:29:13;95549.91;;;13.05;62.60
34742;BME280;20968;42.696;23.360;2023-05-10T11:31:43;95542.78;;;12.99;62.81
34742;BME280;20968;42.696;23.360;2023-05-10T11:34:27;95550.31;;;13.18;61.66
34742;BME280;20968;42.696;23.360;2023-05-10T11:36:54;95550.00;;;13.36;63.06
34742;BME280;20968;42.696;23.360;2023-05-10T11:39:20;95557.81;;;13.37;61.01
34742;BME280;20968;42.696;23.360;2023-05-10T11:41:49;95541.97;;;13.13;61.82
34742;BME280;20968;42.696;23.360;2023-05-10T11:44:15;95542.34;;;13.25;62.41
34742;BME280;20968;42.696;23.360;2023-05-10T11:46:41;95544.16;;;13.09;61.80
34742;BME280;20968;42.696;23.360;2023-05-10T11:49:07;95549.22;;;13.10;61.67
34742;BME280;20968;42.696;23.360;2023-05-10T11:51:34;95545.56;;;13.19;62.48
34742;BME280;20968;42.696;23.360;2023-05-10T11:54:11;95553.00;;;13.32;61.82
34742;BME280;20968;42.696;23.360;2023-05-10T11:56:39;95550.53;;;13.15;61.93
34742;BME280;20968;42.696;23.360;2023-05-10T11:59:05;95534.97;;;13.17;62.22
34742;BME280;20968;42.696;23.360;2023-05-10T12:01:31;95529.25;;;13.21;61.80
34742;BME280;20968;42.696;23.360;2023-05-10T12:03:58;95537.31;;;13.24;62.30
34742;BME280;20968;42.696;23.360;2023-05-10T12:06:36;95532.66;;;13.35;62.02
34742;BME280;20968;42.696;23.360;2023-05-10T12:09:06;95533.03;;;13.48;62.25
34742;BME280;20968;42.696;23.360;2023-05-10T12:25:12;95523.19;;;12.97;63.57
34742;BME280;20968;42.696;23.360;2023-05-10T12:27:39;95530.13;;;13.12;63.45
34742;BME280;20968;42.696;23.360;2023-05-10T12:30:06;95523.78;;;13.06;63.19
34742;BME280;20968;42.696;23.360;2023-05-10T12:32:41;95518.47;;;13.03;63.51
34742;BME280;20968;42.696;23.360;2023-05-10T12:35:07;95534.41;;;13.13;63.21
34742;BME280;20968;42.696;23.360;2023-05-10T12:37:34;95525.53;;;13.04;63.15
34742;BME280;20968;42.696;23.360;2023-05-10T12:40:05;95520.66;;;12.99;63.24
34742;BME280;20968;42.696;23.360;2023-05-10T12:42:32;95517.88;;;12.93;63.24
34742;BME280;20968;42.696;23.360;2023-05-10T12:44:59;95513.97;;;12.85;62.63
34742;BME280;20968;42.696;23.360;2023-05-10T12:47:25;95509.97;;;12.86;63.37
34742;BME280;20968;42.696;23.360;2023-05-10T12:49:54;95517.28;;;12.89;63.99
34742;BME280;20968;42.696;23.360;2023-05-10T12:52:19;95511.56;;;12.93;63.20
34742;BME280;20968;42.696;23.360;2023-05-10T12:54:46;95502.41;;;12.87;63.77
34742;BME280;20968;42.696;23.360;2023-05-10T12:57:13;95493.88;;;13.05;63.89
34742;BME280;20968;42.696;23.360;2023-05-10T12:59:41;95504.09;;;12.99;63.00
34742;BME280;20968;42.696;23.360;2023-05-10T13:02:22;95491.69;;;13.14;63.65
34742;BME280;20968;42.696;23.360;2023-05-10T13:04:50;95491.81;;;13.25;63.07
34742;BME280;20968;42.696;23.360;2023-05-10T13:07:15;95502.69;;;13.28;63.77
34742;BME280;20968;42.696;23.360;2023-05-10T13:09:41;95493.53;;;13.22;62.89
34742;BME280;20968;42.696;23.360;2023-05-10T13:12:08;95494.91;;;13.07;62.52
34742;BME280;20968;42.696;23.360;2023-05-10T13:14:34;95478.94;;;12.97;63.46
34742;BME280;20968;42.696;23.360;2023-05-10T13:16:59;95495.19;;;13.09;63.86
34742;BME280;20968;42.696;23.360;2023-05-10T13:19:25;95483.41;;;13.14;63.65
34742;BME280;20968;42.696;23.360;2023-05-10T13:21:51;95486.91;;;13.15;64.46
34742;BME280;20968;42.696;23.360;2023-05-10T13:24:16;95474.50;;;13.05;63.80
34742;BME280;20968;42.696;23.360;2023-05-10T13:26:43;95474.41;;;13.19;63.20
34742;BME280;20968;42.696;23.360;2023-05-10T13:29:09;95484.44;;;13.17;62.58
34742;BME280;20968;42.696;23.360;2023-05-10T13:31:34;95482.91;;;13.16;63.45
34742;BME280;20968;42.696;23.360;2023-05-10T13:34:01;95488.44;;;13.16;63.29
34742;BME280;20968;42.696;23.360;2023-05-10T13:36:27;95477.72;;;12.98;63.03
34742;BME280;20968;42.696;23.360;2023-05-10T13:38:54;95465.75;;;12.86;63.88
34742;BME280;20968;42.696;23.360;2023-05-10T13:41:19;95463.31;;;12.94;64.19
34742;BME280;20968;42.696;23.360;2023-05-10T13:43:49;95468.00;;;13.08;62.56
34742;BME280;20968;42.696;23.360;2023-05-10T13:46:14;95454.44;;;13.10;64.09
34742;BME280;20968;42.696;23.360;2023-05-10T13:48:41;95469.66;;;13.20;63.41
34742;BME280;20968;42.696;23.360;2023-05-10T13:51:06;95457.59;;;13.22;63.15
34742;BME280;20968;42.696;23.360;2023-05-10T13:53:32;95466.72;;;13.28;62.85
34742;BME280;20968;42.696;23.360;2023-05-10T13:55:57;95463.97;;;13.28;63.08
34742;BME280;20968;42.696;23.360;2023-05-10T13:58:23;95456.63;;;13.25;63.01
34742;BME280;20968;42.696;23.360;2023-05-10T14:00:49;95466.59;;;13.18;63.43
34742;BME280;20968;42.696;23.360;2023-05-10T14:03:15;95467.13;;;13.21;62.80
34742;BME280;20968;42.696;23.360;2023-05-10T14:05:41;95456.06;;;12.96;63.19
34742;BME280;20968;42.696;23.360;2023-05-10T14:08:07;95456.03;;;12.91;63.73